首页
METAR-TAF:

METAR-TAF

机场 :

Vardø, 挪威

纬度: 70-21N, 经度: 031-03E, 海拔: 12米

当前天气观测

该预报发布于37分钟前的19:20 UTC
风速32节,风向西北
温度 -5°C
湿度 238%
气压 998 hPa
能見度: 5000
多云层高于4200英尺
小阵雪

METAR: ENSS 221920Z 31032KT 5000 -SHSN BKN042 M05/07 Q0998 RMK WIND 500FT 30038KT

时间: 20:57 (19:57 UTC)


TAF: 丢失

超过4000个机场的气象观测和天气预报(METAR&TAF报告)。

可查询的气象台以黄色和红色小点在地图上表示。

将鼠标移到小点上方,可查看气象台名称。

然后点击查看天气观测和预报。

如需切换地图:点击带黑十字的绿色按钮放大地图;点击带横线的绿色按钮缩小地图;或者点击绿色箭头查看邻近地区的地图。


METAR-TAF: